KSHN/SHN METAR and TAF weather

Enter ICAO airport designator
Station Type Date Time Source
KSHN METAR 2021/09/24 02:53 UTC NOAA

KSHN 240253Z AUTO 01003KT 10SM CLR 16/12 A3022 RMK AO2 SLP234 T01610117 56008


Station Type Date Time Source
KSHN Decoded METAR 2021/09/24 02:53 UTC NOAA

SHELTON SANDERSON FIELD, WA, United States (KSHN) 47-14N 123-08W 82M
Sep 23, 2021 - 10:53 PM EDT / 2021.09.24 0253 UTC
Wind: from the N (010 degrees) at 3 MPH (3 KT):0
Visibility: 10 mile(s):0
Sky conditions: clear
Temperature: 61.0 F (16.1 C)
Dew Point: 53.1 F (11.7 C)
Relative Humidity: 75%
Pressure (altimeter): 30.22 in. Hg (1023 hPa)
Pressure tendency: 0.02 inches (0.8 hPa) lower than three hours ago
ob: KSHN 240253Z AUTO 01003KT 10SM CLR 16/12 A3022 RMK AO2 SLP234 T01610117 56008
cycle: 3

Station Type Date Time Source
KSHN TAF UTC NOAA

Error!

Example: see airport list